sensor_id;sensor_type;location;lat;lon;timestamp;pressure;altitude;pressure_sealevel;temperature;humidity
3968;BME280;9221;42.646;23.380;2022-12-29T00:02:15;95478.88;;;5.62;88.64
3968;BME280;9221;42.646;23.380;2022-12-29T00:04:40;95445.66;;;5.50;89.04
3968;BME280;9221;42.646;23.380;2022-12-29T00:07:06;95421.34;;;5.20;88.87
3968;BME280;9221;42.646;23.380;2022-12-29T00:09:32;95395.41;;;5.17;88.87
3968;BME280;9221;42.646;23.380;2022-12-29T00:11:59;95444.09;;;5.47;88.22
3968;BME280;9221;42.646;23.380;2022-12-29T00:14:24;95449.53;;;5.30;88.59
3968;BME280;9221;42.646;23.380;2022-12-29T00:17:08;95483.28;;;5.20;89.07
3968;BME280;9221;42.646;23.380;2022-12-29T00:19:34;95392.75;;;4.90;89.50
3968;BME280;9221;42.646;23.380;2022-12-29T00:22:18;95398.63;;;4.94;89.65
3968;BME280;9221;42.646;23.380;2022-12-29T00:25:03;95408.31;;;4.91;89.58
3968;BME280;9221;42.646;23.380;2022-12-29T00:27:34;95458.13;;;5.32;89.48
3968;BME280;9221;42.646;23.380;2022-12-29T00:30:21;95439.53;;;5.22;89.76
3968;BME280;9221;42.646;23.380;2022-12-29T00:33:20;95460.66;;;5.19;88.73
3968;BME280;9221;42.646;23.380;2022-12-29T00:36:08;95403.47;;;5.00;89.71
3968;BME280;9221;42.646;23.380;2022-12-29T00:38:39;95437.47;;;4.85;89.80
3968;BME280;9221;42.646;23.380;2022-12-29T00:41:24;95460.56;;;5.20;90.16
3968;BME280;9221;42.646;23.380;2022-12-29T00:44:10;95422.41;;;4.89;90.14
3968;BME280;9221;42.646;23.380;2022-12-29T00:46:37;95458.97;;;5.18;89.79
3968;BME280;9221;42.646;23.380;2022-12-29T00:49:04;95456.16;;;5.35;90.15
3968;BME280;9221;42.646;23.380;2022-12-29T00:51:48;95470.78;;;5.52;89.27
3968;BME280;9221;42.646;23.380;2022-12-29T00:54:14;95404.44;;;5.26;88.54
3968;BME280;9221;42.646;23.380;2022-12-29T00:56:40;95467.38;;;5.23;88.95
3968;BME280;9221;42.646;23.380;2022-12-29T00:59:10;95469.97;;;5.37;88.79
3968;BME280;9221;42.646;23.380;2022-12-29T01:01:37;95451.13;;;5.18;89.28
3968;BME280;9221;42.646;23.380;2022-12-29T01:04:03;95420.38;;;4.94;89.90
3968;BME280;9221;42.646;23.380;2022-12-29T01:06:29;95449.69;;;4.99;90.38
3968;BME280;9221;42.646;23.380;2022-12-29T01:08:55;95488.31;;;4.94;90.71
3968;BME280;9221;42.646;23.380;2022-12-29T01:11:39;95417.75;;;4.80;90.64
3968;BME280;9221;42.646;23.380;2022-12-29T01:14:05;95471.69;;;5.09;90.93
3968;BME280;9221;42.646;23.380;2022-12-29T01:16:31;95496.19;;;5.08;90.81
3968;BME280;9221;42.646;23.380;2022-12-29T01:18:57;95384.75;;;4.79;90.92
3968;BME280;9221;42.646;23.380;2022-12-29T01:21:22;95470.75;;;5.25;90.09
3968;BME280;9221;42.646;23.380;2022-12-29T01:23:48;95402.78;;;5.25;89.65
3968;BME280;9221;42.646;23.380;2022-12-29T01:26:15;95401.28;;;5.21;89.10
3968;BME280;9221;42.646;23.380;2022-12-29T01:28:40;95437.63;;;5.53;88.72
3968;BME280;9221;42.646;23.380;2022-12-29T01:31:08;95482.06;;;5.67;88.24
3968;BME280;9221;42.646;23.380;2022-12-29T01:33:33;95444.78;;;5.64;87.72
3968;BME280;9221;42.646;23.380;2022-12-29T01:36:08;95449.53;;;5.71;87.08
3968;BME280;9221;42.646;23.380;2022-12-29T01:38:35;95391.25;;;5.55;87.13
3968;BME280;9221;42.646;23.380;2022-12-29T01:41:01;95422.22;;;5.75;87.19
3968;BME280;9221;42.646;23.380;2022-12-29T01:43:42;95424.63;;;5.79;86.86
3968;BME280;9221;42.646;23.380;2022-12-29T01:48:48;95430.25;;;5.72;86.74
3968;BME280;9221;42.646;23.380;2022-12-29T01:51:15;95377.66;;;5.50;87.04
3968;BME280;9221;42.646;23.380;2022-12-29T01:53:41;95450.66;;;5.67;86.65
3968;BME280;9221;42.646;23.380;2022-12-29T01:56:12;95413.94;;;5.41;86.66
3968;BME280;9221;42.646;23.380;2022-12-29T01:58:41;95409.28;;;5.32;87.50
3968;BME280;9221;42.646;23.380;2022-12-29T02:01:08;95384.44;;;4.98;87.70
3968;BME280;9221;42.646;23.380;2022-12-29T02:03:35;95456.91;;;5.23;88.06
3968;BME280;9221;42.646;23.380;2022-12-29T02:06:12;95421.25;;;5.22;88.49
3968;BME280;9221;42.646;23.380;2022-12-29T02:08:40;95392.09;;;5.28;88.08
3968;BME280;9221;42.646;23.380;2022-12-29T02:11:06;95366.34;;;5.22;88.32
3968;BME280;9221;42.646;23.380;2022-12-29T02:13:32;95391.13;;;5.43;87.91
3968;BME280;9221;42.646;23.380;2022-12-29T02:32:45;95420.78;;;5.57;88.11
3968;BME280;9221;42.646;23.380;2022-12-29T02:35:34;95412.94;;;5.57;87.42
3968;BME280;9221;42.646;23.380;2022-12-29T02:41:49;95440.19;;;5.67;87.71
3968;BME280;9221;42.646;23.380;2022-12-29T02:44:16;95394.75;;;5.68;87.44
3968;BME280;9221;42.646;23.380;2022-12-29T02:49:46;95348.06;;;5.62;87.32
3968;BME280;9221;42.646;23.380;2022-12-29T02:52:19;95384.88;;;5.59;86.55
3968;BME280;9221;42.646;23.380;2022-12-29T02:54:48;95359.69;;;5.71;86.77
3968;BME280;9221;42.646;23.380;2022-12-29T02:57:28;95408.06;;;6.05;86.25
3968;BME280;9221;42.646;23.380;2022-12-29T03:00:10;95409.72;;;6.06;86.65
3968;BME280;9221;42.646;23.380;2022-12-29T03:10:48;95390.72;;;5.50;88.45
3968;BME280;9221;42.646;23.380;2022-12-29T03:19:04;95438.16;;;5.31;89.57
3968;BME280;9221;42.646;23.380;2022-12-29T03:21:42;95397.72;;;5.22;90.11
3968;BME280;9221;42.646;23.380;2022-12-29T03:24:29;95424.56;;;5.38;89.59
3968;BME280;9221;42.646;23.380;2022-12-29T03:26:59;95335.38;;;5.16;89.23
3968;BME280;9221;42.646;23.380;2022-12-29T03:29:26;95377.19;;;5.16;88.38
3968;BME280;9221;42.646;23.380;2022-12-29T03:31:53;95466.50;;;5.37;88.31
3968;BME280;9221;42.646;23.380;2022-12-29T03:34:21;95367.38;;;5.19;88.24
3968;BME280;9221;42.646;23.380;2022-12-29T03:37:00;95374.84;;;5.11;88.74
3968;BME280;9221;42.646;23.380;2022-12-29T03:39:28;95377.78;;;5.06;89.19
3968;BME280;9221;42.646;23.380;2022-12-29T03:42:02;95395.59;;;5.14;89.77
3968;BME280;9221;42.646;23.380;2022-12-29T03:44:40;95343.50;;;4.55;90.24
3968;BME280;9221;42.646;23.380;2022-12-29T03:47:07;95355.19;;;4.64;90.76
3968;BME280;9221;42.646;23.380;2022-12-29T03:49:33;95400.31;;;4.66;91.14
3968;BME280;9221;42.646;23.380;2022-12-29T03:51:58;95430.28;;;4.60;91.56
3968;BME280;9221;42.646;23.380;2022-12-29T03:54:24;95409.00;;;4.81;90.78
3968;BME280;9221;42.646;23.380;2022-12-29T03:56:49;95368.50;;;4.59;90.01
3968;BME280;9221;42.646;23.380;2022-12-29T03:59:15;95419.63;;;4.49;89.91
3968;BME280;9221;42.646;23.380;2022-12-29T04:01:40;95351.34;;;4.55;89.88
3968;BME280;9221;42.646;23.380;2022-12-29T04:04:06;95423.91;;;4.93;89.26
3968;BME280;9221;42.646;23.380;2022-12-29T04:06:31;95379.69;;;4.75;89.20
3968;BME280;9221;42.646;23.380;2022-12-29T04:08:57;95460.88;;;5.01;88.29
3968;BME280;9221;42.646;23.380;2022-12-29T04:11:22;95385.84;;;4.89;88.53
3968;BME280;9221;42.646;23.380;2022-12-29T04:13:48;95445.94;;;5.03;88.46
3968;BME280;9221;42.646;23.380;2022-12-29T04:16:13;95397.81;;;4.64;88.10
3968;BME280;9221;42.646;23.380;2022-12-29T04:18:39;95324.16;;;4.16;88.67
3968;BME280;9221;42.646;23.380;2022-12-29T04:21:04;95442.38;;;4.47;88.87
3968;BME280;9221;42.646;23.380;2022-12-29T04:23:33;95422.06;;;4.37;89.90
3968;BME280;9221;42.646;23.380;2022-12-29T04:25:59;95387.34;;;4.21;90.17
3968;BME280;9221;42.646;23.380;2022-12-29T04:28:25;95454.31;;;4.51;90.41
3968;BME280;9221;42.646;23.380;2022-12-29T04:30:50;95383.63;;;4.39;89.69
3968;BME280;9221;42.646;23.380;2022-12-29T04:33:16;95414.22;;;4.81;88.91
3968;BME280;9221;42.646;23.380;2022-12-29T04:35:42;95408.63;;;4.72;89.15
3968;BME280;9221;42.646;23.380;2022-12-29T04:38:08;95372.06;;;4.58;88.87
3968;BME280;9221;42.646;23.380;2022-12-29T04:40:34;95421.28;;;5.07;88.57
3968;BME280;9221;42.646;23.380;2022-12-29T04:42:59;95342.88;;;4.37;87.44
3968;BME280;9221;42.646;23.380;2022-12-29T04:45:24;95479.34;;;4.98;87.38
3968;BME280;9221;42.646;23.380;2022-12-29T04:47:50;95420.38;;;4.65;87.20
3968;BME280;9221;42.646;23.380;2022-12-29T04:50:15;95438.22;;;4.73;87.77
3968;BME280;9221;42.646;23.380;2022-12-29T04:52:41;95422.16;;;4.50;87.54
3968;BME280;9221;42.646;23.380;2022-12-29T04:55:06;95489.72;;;4.85;87.95
3968;BME280;9221;42.646;23.380;2022-12-29T04:57:32;95477.50;;;4.86;87.66
3968;BME280;9221;42.646;23.380;2022-12-29T04:59:57;95378.69;;;4.49;87.81
3968;BME280;9221;42.646;23.380;2022-12-29T05:02:23;95474.69;;;4.89;87.71
3968;BME280;9221;42.646;23.380;2022-12-29T05:04:48;95435.94;;;4.96;88.00
3968;BME280;9221;42.646;23.380;2022-12-29T05:07:14;95403.19;;;4.90;87.65
3968;BME280;9221;42.646;23.380;2022-12-29T05:09:40;95404.50;;;4.97;87.73
3968;BME280;9221;42.646;23.380;2022-12-29T05:12:05;95457.84;;;5.22;87.49
3968;BME280;9221;42.646;23.380;2022-12-29T05:14:31;95439.84;;;5.32;87.54
3968;BME280;9221;42.646;23.380;2022-12-29T05:20:18;95443.56;;;5.28;87.02
3968;BME280;9221;42.646;23.380;2022-12-29T05:22:44;95488.28;;;5.37;86.89
3968;BME280;9221;42.646;23.380;2022-12-29T05:25:09;95389.16;;;5.05;87.34
3968;BME280;9221;42.646;23.380;2022-12-29T05:27:35;95417.34;;;5.15;86.98
3968;BME280;9221;42.646;23.380;2022-12-29T05:30:00;95427.13;;;5.25;87.26
3968;BME280;9221;42.646;23.380;2022-12-29T05:32:26;95475.78;;;5.28;87.26
3968;BME280;9221;42.646;23.380;2022-12-29T05:34:51;95354.69;;;4.86;87.47
3968;BME280;9221;42.646;23.380;2022-12-29T05:37:17;95415.91;;;5.23;87.66
3968;BME280;9221;42.646;23.380;2022-12-29T05:39:42;95394.16;;;5.23;87.11
3968;BME280;9221;42.646;23.380;2022-12-29T05:42:08;95449.22;;;5.49;87.44
3968;BME280;9221;42.646;23.380;2022-12-29T05:44:33;95463.78;;;5.53;87.78
3968;BME280;9221;42.646;23.380;2022-12-29T05:46:58;95444.72;;;5.51;87.10
3968;BME280;9221;42.646;23.380;2022-12-29T05:49:24;95460.06;;;5.42;87.13
3968;BME280;9221;42.646;23.380;2022-12-29T05:55:08;95478.31;;;5.15;87.56
3968;BME280;9221;42.646;23.380;2022-12-29T05:57:33;95467.59;;;5.20;88.34
3968;BME280;9221;42.646;23.380;2022-12-29T05:59:59;95461.31;;;5.22;88.79
3968;BME280;9221;42.646;23.380;2022-12-29T06:02:24;95505.88;;;5.21;88.75
3968;BME280;9221;42.646;23.380;2022-12-29T06:04:50;95422.41;;;5.03;89.12
3968;BME280;9221;42.646;23.380;2022-12-29T06:07:15;95476.44;;;5.32;88.77
3968;BME280;9221;42.646;23.380;2022-12-29T06:09:40;95498.69;;;4.96;89.10
3968;BME280;9221;42.646;23.380;2022-12-29T06:12:06;95474.50;;;4.92;90.79
3968;BME280;9221;42.646;23.380;2022-12-29T06:14:31;95390.81;;;4.50;90.44
3968;BME280;9221;42.646;23.380;2022-12-29T06:16:57;95467.59;;;4.77;90.40
3968;BME280;9221;42.646;23.380;2022-12-29T06:19:22;95471.81;;;5.50;89.44
3968;BME280;9221;42.646;23.380;2022-12-29T06:21:48;95488.44;;;5.63;89.29
3968;BME280;9221;42.646;23.380;2022-12-29T06:24:13;95423.97;;;5.48;88.18
3968;BME280;9221;42.646;23.380;2022-12-29T06:26:38;95499.72;;;5.91;87.98
3968;BME280;9221;42.646;23.380;2022-12-29T06:29:06;95452.41;;;5.94;87.72
3968;BME280;9221;42.646;23.380;2022-12-29T06:31:32;95445.47;;;5.93;86.92
3968;BME280;9221;42.646;23.380;2022-12-29T06:33:57;95422.59;;;5.69;86.83
3968;BME280;9221;42.646;23.380;2022-12-29T06:36:23;95458.44;;;5.82;87.46
3968;BME280;9221;42.646;23.380;2022-12-29T06:38:48;95473.66;;;6.17;87.43
3968;BME280;9221;42.646;23.380;2022-12-29T06:41:14;95491.53;;;5.83;86.97
3968;BME280;9221;42.646;23.380;2022-12-29T06:43:39;95404.06;;;5.18;88.51
3968;BME280;9221;42.646;23.380;2022-12-29T06:46:05;95430.72;;;5.10;89.95
3968;BME280;9221;42.646;23.380;2022-12-29T06:48:30;95466.03;;;5.45;90.47
3968;BME280;9221;42.646;23.380;2022-12-29T06:50:56;95478.66;;;5.80;90.32
3968;BME280;9221;42.646;23.380;2022-12-29T06:53:21;95435.00;;;5.93;88.96
3968;BME280;9221;42.646;23.380;2022-12-29T06:55:47;95461.91;;;6.09;87.57
3968;BME280;9221;42.646;23.380;2022-12-29T06:58:12;95495.94;;;6.50;87.09
3968;BME280;9221;42.646;23.380;2022-12-29T07:00:38;95490.91;;;6.47;86.06
3968;BME280;9221;42.646;23.380;2022-12-29T07:03:03;95480.00;;;6.53;84.68
3968;BME280;9221;42.646;23.380;2022-12-29T07:05:29;95527.41;;;6.75;85.23
3968;BME280;9221;42.646;23.380;2022-12-29T07:07:56;95523.75;;;6.78;84.90
3968;BME280;9221;42.646;23.380;2022-12-29T07:10:22;95514.41;;;6.87;84.69
3968;BME280;9221;42.646;23.380;2022-12-29T07:12:48;95434.94;;;6.60;83.70
3968;BME280;9221;42.646;23.380;2022-12-29T07:15:13;95439.75;;;6.54;83.79
3968;BME280;9221;42.646;23.380;2022-12-29T07:17:39;95499.38;;;6.37;84.27
3968;BME280;9221;42.646;23.380;2022-12-29T07:20:05;95473.09;;;6.77;84.81
3968;BME280;9221;42.646;23.380;2022-12-29T07:22:31;95478.13;;;6.55;84.75
3968;BME280;9221;42.646;23.380;2022-12-29T07:24:57;95361.09;;;5.89;85.26
3968;BME280;9221;42.646;23.380;2022-12-29T07:27:22;95471.59;;;7.12;84.87
3968;BME280;9221;42.646;23.380;2022-12-29T07:29:47;95462.91;;;7.49;81.76
3968;BME280;9221;42.646;23.380;2022-12-29T07:32:13;95449.66;;;7.63;80.03
3968;BME280;9221;42.646;23.380;2022-12-29T07:34:38;95477.06;;;7.83;79.67
3968;BME280;9221;42.646;23.380;2022-12-29T07:37:05;95436.84;;;7.83;78.81
3968;BME280;9221;42.646;23.380;2022-12-29T07:39:30;95447.97;;;7.62;79.58
3968;BME280;9221;42.646;23.380;2022-12-29T07:41:55;95443.59;;;7.98;79.24
3968;BME280;9221;42.646;23.380;2022-12-29T07:44:21;95470.47;;;8.73;77.32
3968;BME280;9221;42.646;23.380;2022-12-29T07:46:46;95468.59;;;8.75;75.61
3968;BME280;9221;42.646;23.380;2022-12-29T07:49:12;95481.41;;;9.25;74.41
3968;BME280;9221;42.646;23.380;2022-12-29T07:51:37;95434.97;;;8.90;73.71
3968;BME280;9221;42.646;23.380;2022-12-29T07:54:03;95493.94;;;9.55;73.59
3968;BME280;9221;42.646;23.380;2022-12-29T07:56:28;95530.22;;;10.29;71.79
3968;BME280;9221;42.646;23.380;2022-12-29T07:58:54;95433.84;;;10.37;69.76
3968;BME280;9221;42.646;23.380;2022-12-29T08:01:19;95446.22;;;11.09;67.36
3968;BME280;9221;42.646;23.380;2022-12-29T08:03:45;95453.06;;;11.22;66.26
3968;BME280;9221;42.646;23.380;2022-12-29T08:06:11;95451.53;;;11.60;64.42
3968;BME280;9221;42.646;23.380;2022-12-29T08:08:37;95512.03;;;12.04;64.56
3968;BME280;9221;42.646;23.380;2022-12-29T08:11:03;95523.75;;;12.40;63.35
3968;BME280;9221;42.646;23.380;2022-12-29T08:13:28;95497.56;;;12.27;62.62
3968;BME280;9221;42.646;23.380;2022-12-29T08:15:54;95457.78;;;12.48;61.55
3968;BME280;9221;42.646;23.380;2022-12-29T08:18:19;95528.50;;;12.85;59.85
3968;BME280;9221;42.646;23.380;2022-12-29T08:20:45;95473.09;;;12.64;60.56
3968;BME280;9221;42.646;23.380;2022-12-29T08:23:10;95527.03;;;13.20;60.28
3968;BME280;9221;42.646;23.380;2022-12-29T08:25:35;95528.69;;;11.94;62.12
3968;BME280;9221;42.646;23.380;2022-12-29T08:28:01;95486.16;;;11.26;65.37
3968;BME280;9221;42.646;23.380;2022-12-29T08:30:26;95470.19;;;11.68;63.43
3968;BME280;9221;42.646;23.380;2022-12-29T08:32:51;95517.97;;;11.55;63.92
3968;BME280;9221;42.646;23.380;2022-12-29T08:35:17;95496.25;;;10.90;65.44
3968;BME280;9221;42.646;23.380;2022-12-29T08:37:43;95485.69;;;10.47;67.81
3968;BME280;9221;42.646;23.380;2022-12-29T08:40:09;95443.84;;;11.06;65.69
3968;BME280;9221;42.646;23.380;2022-12-29T08:42:35;95492.56;;;11.33;64.75
3968;BME280;9221;42.646;23.380;2022-12-29T08:45:00;95487.75;;;11.48;64.89
3968;BME280;9221;42.646;23.380;2022-12-29T08:47:26;95481.72;;;12.57;62.89
3968;BME280;9221;42.646;23.380;2022-12-29T08:49:52;95522.66;;;12.52;61.16
3968;BME280;9221;42.646;23.380;2022-12-29T08:52:17;95487.59;;;13.65;59.02
3968;BME280;9221;42.646;23.380;2022-12-29T08:54:42;95448.13;;;14.26;56.40
3968;BME280;9221;42.646;23.380;2022-12-29T08:57:08;95478.69;;;14.30;55.15
3968;BME280;9221;42.646;23.380;2022-12-29T08:59:33;95460.00;;;13.58;57.34
3968;BME280;9221;42.646;23.380;2022-12-29T09:01:59;95474.09;;;13.01;58.52
3968;BME280;9221;42.646;23.380;2022-12-29T09:04:25;95509.19;;;13.23;58.84
3968;BME280;9221;42.646;23.380;2022-12-29T09:06:52;95430.69;;;14.05;56.45
3968;BME280;9221;42.646;23.380;2022-12-29T09:09:18;95433.06;;;14.88;53.34
3968;BME280;9221;42.646;23.380;2022-12-29T09:11:44;95433.97;;;15.32;52.40
3968;BME280;9221;42.646;23.380;2022-12-29T09:14:09;95466.91;;;15.47;52.08
3968;BME280;9221;42.646;23.380;2022-12-29T09:16:35;95476.31;;;16.02;50.34
3968;BME280;9221;42.646;23.380;2022-12-29T09:19:02;95451.25;;;16.13;49.28
3968;BME280;9221;42.646;23.380;2022-12-29T09:21:27;95451.91;;;16.32;48.73
3968;BME280;9221;42.646;23.380;2022-12-29T09:23:53;95451.59;;;15.76;50.03
3968;BME280;9221;42.646;23.380;2022-12-29T09:26:18;95446.66;;;15.46;51.36
3968;BME280;9221;42.646;23.380;2022-12-29T09:28:44;95479.25;;;16.42;48.85
3968;BME280;9221;42.646;23.380;2022-12-29T09:31:09;95413.84;;;16.39;48.04
3968;BME280;9221;42.646;23.380;2022-12-29T09:33:35;95445.28;;;16.61;47.75
3968;BME280;9221;42.646;23.380;2022-12-29T09:36:01;95455.06;;;16.11;48.16
3968;BME280;9221;42.646;23.380;2022-12-29T09:38:27;95459.75;;;16.33;48.20
3968;BME280;9221;42.646;23.380;2022-12-29T09:40:55;95416.31;;;16.24;48.13
3968;BME280;9221;42.646;23.380;2022-12-29T09:51:56;95453.63;;;13.03;56.66
3968;BME280;9221;42.646;23.380;2022-12-29T09:54:41;95430.59;;;13.13;56.36
3968;BME280;9221;42.646;23.380;2022-12-29T09:57:16;95464.41;;;12.82;57.43
3968;BME280;9221;42.646;23.380;2022-12-29T09:59:43;95421.53;;;12.68;58.14
3968;BME280;9221;42.646;23.380;2022-12-29T10:02:46;95424.63;;;12.44;58.96
3968;BME280;9221;42.646;23.380;2022-12-29T10:14:11;95373.91;;;11.41;61.93
3968;BME280;9221;42.646;23.380;2022-12-29T10:16:54;95404.75;;;11.31;62.87
3968;BME280;9221;42.646;23.380;2022-12-29T10:24:48;95434.13;;;11.16;64.59
3968;BME280;9221;42.646;23.380;2022-12-29T10:27:16;95371.16;;;11.02;64.35
3968;BME280;9221;42.646;23.380;2022-12-29T10:29:48;95441.97;;;11.28;64.50
3968;BME280;9221;42.646;23.380;2022-12-29T10:32:27;95348.53;;;11.09;63.87
3968;BME280;9221;42.646;23.380;2022-12-29T10:34:58;95396.97;;;11.39;63.30
3968;BME280;9221;42.646;23.380;2022-12-29T10:40:18;95338.84;;;10.79;64.81
3968;BME280;9221;42.646;23.380;2022-12-29T10:42:50;95339.66;;;10.70;65.24
3968;BME280;9221;42.646;23.380;2022-12-29T10:45:17;95315.16;;;10.58;65.51
3968;BME280;9221;42.646;23.380;2022-12-29T10:48:15;95340.38;;;10.72;65.65
3968;BME280;9221;42.646;23.380;2022-12-29T10:50:38;95361.84;;;10.98;65.55
3968;BME280;9221;42.646;23.380;2022-12-29T10:53:15;95400.38;;;11.10;65.22
3968;BME280;9221;42.646;23.380;2022-12-29T10:55:44;95374.66;;;11.12;65.69
3968;BME280;9221;42.646;23.380;2022-12-29T10:58:13;95365.44;;;10.97;65.74
3968;BME280;9221;42.646;23.380;2022-12-29T11:00:39;95387.28;;;10.99;65.53
3968;BME280;9221;42.646;23.380;2022-12-29T11:05:41;95356.41;;;10.90;66.00
3968;BME280;9221;42.646;23.380;2022-12-29T11:08:15;95338.16;;;10.87;65.82
3968;BME280;9221;42.646;23.380;2022-12-29T11:10:43;95310.66;;;10.79;66.03
3968;BME280;9221;42.646;23.380;2022-12-29T11:13:18;95386.13;;;10.61;66.41
3968;BME280;9221;42.646;23.380;2022-12-29T11:15:48;95294.19;;;10.56;66.87
3968;BME280;9221;42.646;23.380;2022-12-29T11:18:25;95396.28;;;10.96;67.00
3968;BME280;9221;42.646;23.380;2022-12-29T11:20:53;95347.72;;;11.18;66.08
3968;BME280;9221;42.646;23.380;2022-12-29T11:23:35;95351.94;;;11.31;65.39
3968;BME280;9221;42.646;23.380;2022-12-29T11:28:41;95275.72;;;10.97;65.66
3968;BME280;9221;42.646;23.380;2022-12-29T11:31:07;95287.97;;;11.08;65.46
3968;BME280;9221;42.646;23.380;2022-12-29T11:33:35;95332.78;;;11.39;65.33
3968;BME280;9221;42.646;23.380;2022-12-29T11:36:12;95282.81;;;11.06;65.36
3968;BME280;9221;42.646;23.380;2022-12-29T11:38:55;95332.22;;;11.35;65.49
3968;BME280;9221;42.646;23.380;2022-12-29T11:41:27;95291.44;;;11.08;65.45
3968;BME280;9221;42.646;23.380;2022-12-29T11:43:55;95375.03;;;11.48;65.16
3968;BME280;9221;42.646;23.380;2022-12-29T11:46:29;95357.25;;;11.50;65.07
3968;BME280;9221;42.646;23.380;2022-12-29T11:48:56;95350.72;;;11.55;65.24
3968;BME280;9221;42.646;23.380;2022-12-29T11:51:30;95306.91;;;11.42;64.89
3968;BME280;9221;42.646;23.380;2022-12-29T11:54:00;95288.72;;;11.39;64.76
3968;BME280;9221;42.646;23.380;2022-12-29T11:56:39;95363.09;;;11.74;64.78
3968;BME280;9221;42.646;23.380;2022-12-29T12:01:56;95289.00;;;11.56;64.58
3968;BME280;9221;42.646;23.380;2022-12-29T12:04:26;95273.00;;;11.47;64.97
3968;BME280;9221;42.646;23.380;2022-12-29T12:12:35;95323.06;;;11.78;64.41
3968;BME280;9221;42.646;23.380;2022-12-29T12:15:03;95311.38;;;11.91;64.39
3968;BME280;9221;42.646;23.380;2022-12-29T12:17:32;95205.03;;;11.30;64.11
3968;BME280;9221;42.646;23.380;2022-12-29T12:20:20;95303.31;;;11.92;64.03
3968;BME280;9221;42.646;23.380;2022-12-29T12:22:59;95301.38;;;11.94;64.24
3968;BME280;9221;42.646;23.380;2022-12-29T12:25:44;95256.03;;;11.60;64.28
3968;BME280;9221;42.646;23.380;2022-12-29T12:28:28;95299.69;;;11.83;64.55
3968;BME280;9221;42.646;23.380;2022-12-29T12:30:59;95283.28;;;11.80;64.32
3968;BME280;9221;42.646;23.380;2022-12-29T12:33:41;95227.97;;;11.39;64.11
3968;BME280;9221;42.646;23.380;2022-12-29T12:39:49;95299.16;;;11.70;64.99
3968;BME280;9221;42.646;23.380;2022-12-29T12:51:02;95286.63;;;12.01;64.43
3968;BME280;9221;42.646;23.380;2022-12-29T13:02:37;95293.28;;;11.96;64.56
3968;BME280;9221;42.646;23.380;2022-12-29T13:07:56;95194.47;;;11.30;64.64
3968;BME280;9221;42.646;23.380;2022-12-29T13:16:27;95282.72;;;11.76;65.26
3968;BME280;9221;42.646;23.380;2022-12-29T13:27:44;95295.25;;;11.74;65.55
3968;BME280;9221;42.646;23.380;2022-12-29T13:30:20;95293.59;;;11.73;65.94
3968;BME280;9221;42.646;23.380;2022-12-29T13:35:40;95303.03;;;11.46;66.40
3968;BME280;9221;42.646;23.380;2022-12-29T13:41:03;95283.56;;;11.47;66.81
3968;BME280;9221;42.646;23.380;2022-12-29T13:43:31;95229.31;;;11.04;66.83
3968;BME280;9221;42.646;23.380;2022-12-29T13:46:02;95300.09;;;11.40;67.28
3968;BME280;9221;42.646;23.380;2022-12-29T13:48:40;95300.53;;;11.45;67.13
3968;BME280;9221;42.646;23.380;2022-12-29T13:51:09;95330.53;;;11.54;66.72
3968;BME280;9221;42.646;23.380;2022-12-29T13:56:41;95299.69;;;11.54;66.78
3968;BME280;9221;42.646;23.380;2022-12-29T13:59:15;95292.06;;;11.51;66.83
3968;BME280;9221;42.646;23.380;2022-12-29T14:05:03;95256.66;;;10.83;68.77
3968;BME280;9221;42.646;23.380;2022-12-29T14:07:36;95338.00;;;11.19;68.36
3968;BME280;9221;42.646;23.380;2022-12-29T14:10:03;95282.03;;;11.15;67.69
3968;BME280;9221;42.646;23.380;2022-12-29T14:15:14;95327.88;;;11.34;67.93
3968;BME280;9221;42.646;23.380;2022-12-29T14:17:41;95319.44;;;11.40;67.68
3968;BME280;9221;42.646;23.380;2022-12-29T14:20:20;95254.91;;;11.04;67.72
3968;BME280;9221;42.646;23.380;2022-12-29T14:23:00;95267.53;;;11.10;68.01
3968;BME280;9221;42.646;23.380;2022-12-29T14:25:53;95310.94;;;11.27;67.93
3968;BME280;9221;42.646;23.380;2022-12-29T14:28:33;95343.69;;;11.14;68.13
3968;BME280;9221;42.646;23.380;2022-12-29T14:31:01;95367.19;;;11.17;68.24
3968;BME280;9221;42.646;23.380;2022-12-29T14:33:30;95306.59;;;11.16;67.74
3968;BME280;9221;42.646;23.380;2022-12-29T14:35:56;95282.94;;;10.95;68.18
3968;BME280;9221;42.646;23.380;2022-12-29T14:38:24;95314.78;;;11.03;68.39
3968;BME280;9221;42.646;23.380;2022-12-29T14:40:50;95320.41;;;10.89;68.81
3968;BME280;9221;42.646;23.380;2022-12-29T14:43:25;95281.44;;;10.61;69.14
3968;BME280;9221;42.646;23.380;2022-12-29T14:45:57;95329.97;;;10.80;69.67
3968;BME280;9221;42.646;23.380;2022-12-29T14:50:58;95328.44;;;10.46;70.55
3968;BME280;9221;42.646;23.380;2022-12-29T14:56:10;95295.44;;;10.31;70.87
3968;BME280;9221;42.646;23.380;2022-12-29T14:58:47;95297.94;;;10.32;70.76
3968;BME280;9221;42.646;23.380;2022-12-29T15:01:26;95368.34;;;10.21;72.14
3968;BME280;9221;42.646;23.380;2022-12-29T15:03:56;95312.00;;;10.12;72.10
3968;BME280;9221;42.646;23.380;2022-12-29T15:06:24;95329.44;;;10.34;71.96
3968;BME280;9221;42.646;23.380;2022-12-29T15:09:00;95249.50;;;10.03;71.31
3968;BME280;9221;42.646;23.380;2022-12-29T15:11:44;95306.25;;;10.28;70.93
3968;BME280;9221;42.646;23.380;2022-12-29T15:16:50;95298.69;;;9.06;74.69
3968;BME280;9221;42.646;23.380;2022-12-29T15:19:25;95228.19;;;8.89;74.58
3968;BME280;9221;42.646;23.380;2022-12-29T15:21:53;95330.41;;;9.70;74.49
3968;BME280;9221;42.646;23.380;2022-12-29T15:24:19;95366.13;;;9.83;73.95
3968;BME280;9221;42.646;23.380;2022-12-29T15:26:46;95336.16;;;9.96;73.34
3968;BME280;9221;42.646;23.380;2022-12-29T15:29:32;95342.31;;;9.53;74.78
3968;BME280;9221;42.646;23.380;2022-12-29T15:32:00;95334.03;;;9.25;76.08
3968;BME280;9221;42.646;23.380;2022-12-29T15:34:30;95403.78;;;9.19;76.39
3968;BME280;9221;42.646;23.380;2022-12-29T15:36:55;95344.84;;;8.88;76.87
3968;BME280;9221;42.646;23.380;2022-12-29T15:39:31;95329.50;;;9.15;76.85
3968;BME280;9221;42.646;23.380;2022-12-29T15:42:02;95319.00;;;9.04;76.99
3968;BME280;9221;42.646;23.380;2022-12-29T15:44:39;95374.84;;;8.85;77.89
3968;BME280;9221;42.646;23.380;2022-12-29T15:47:12;95332.88;;;8.95;77.92
3968;BME280;9221;42.646;23.380;2022-12-29T15:49:41;95328.72;;;8.81;78.52
3968;BME280;9221;42.646;23.380;2022-12-29T15:52:08;95316.66;;;8.67;78.96
3968;BME280;9221;42.646;23.380;2022-12-29T15:54:34;95310.69;;;8.65;79.73
3968;BME280;9221;42.646;23.380;2022-12-29T15:57:00;95324.19;;;8.83;78.95